Time;durP1;ratioP1;P1;durP2;ratioP2;P2;SDS_P1;SDS_P2;PMS_P1;PMS_P2;Temp;Humidity;BMP_temperature;BMP_pressure;BME280_temperature;BME280_humidity;BME280_pressure;Samples;Min_cycle;Max_cycle;Signal;HPM_P1;HPM_P2
2021/04/20 00:02:32;;;;;;;;;41.50;38.25;;;;;13.32;62.70;100756.22;4986848;28;11256;-74
2021/04/20 00:05:28;;;;;;;;;46.50;41.00;;;;;13.27;62.74;100736.22;4976985;28;11292;-75
2021/04/20 00:08:24;;;;;;;;;43.00;38.25;;;;;13.21;62.65;100716.19;4987225;28;11540;-75
2021/04/20 00:11:20;;;;;;;;;40.25;37.25;;;;;13.17;63.33;100715.22;4976217;28;11229;-77
2021/04/20 00:14:15;;;;;;;;;44.25;40.00;;;;;13.20;63.01;100700.69;4976451;28;11231;-76
2021/04/20 00:17:11;;;;;;;;;39.00;35.25;;;;;13.14;63.81;100681.78;4976165;28;11129;-76
2021/04/20 00:19:48;;;;;;;;;46.75;40.00;;;;;13.16;63.62;100676.69;4976099;28;11158;-76
2021/04/20 00:22:44;;;;;;;;;48.50;41.00;;;;;12.77;63.93;100667.91;4986934;28;11247;-77
2021/04/20 00:25:40;;;;;;;;;44.75;39.25;;;;;12.72;64.92;100677.25;4974211;28;11244;-76
2021/04/20 00:28:35;;;;;;;;;40.50;37.50;;;;;12.59;64.83;100692.31;4975113;28;11627;-75
2021/04/20 00:31:31;;;;;;;;;44.00;39.75;;;;;12.60;65.73;100679.22;4976016;28;11235;-75
2021/04/20 00:33:58;;;;;;;;;38.50;35.75;;;;;12.77;65.74;100659.59;4975529;28;11279;-76
2021/04/20 00:36:54;;;;;;;;;35.50;34.75;;;;;12.85;64.82;100638.44;4977043;28;11274;-76
2021/04/20 00:39:49;;;;;;;;;37.25;35.50;;;;;12.79;64.84;100635.06;4975594;28;11143;-76
2021/04/20 00:42:58;;;;;;;;;42.75;38.00;;;;;12.76;64.99;100627.44;4975831;28;10856;-76
2021/04/20 00:45:53;;;;;;;;;37.50;36.25;;;;;12.85;64.49;100624.56;4985910;28;11996;-77
2021/04/20 00:48:49;;;;;;;;;35.25;34.50;;;;;12.69;65.07;100625.25;4974274;28;11083;-76
2021/04/20 00:51:46;;;;;;;;;40.00;36.25;;;;;12.57;64.92;100628.00;4975131;28;11165;-76
2021/04/20 00:54:41;;;;;;;;;39.00;36.75;;;;;12.53;65.49;100621.53;4975645;28;11094;-76
2021/04/20 00:57:37;;;;;;;;;34.25;33.50;;;;;12.49;65.50;100617.81;4974403;28;11506;-76
2021/04/20 01:00:33;;;;;;;;;38.00;36.00;;;;;12.40;65.17;100637.34;4975381;28;11017;-76
2021/04/20 01:03:29;;;;;;;;;29.25;28.75;;;;;12.61;65.35;100634.50;4975581;28;11282;-77
2021/04/20 01:06:24;;;;;;;;;33.75;33.50;;;;;12.48;65.51;100646.72;4976271;28;11094;-77
2021/04/20 01:09:20;;;;;;;;;29.75;29.75;;;;;12.61;65.16;100642.00;4975309;28;11163;-76
2021/04/20 01:12:17;;;;;;;;;32.00;31.00;;;;;12.49;65.05;100629.72;4957101;28;10955;-75
2021/04/20 01:15:14;;;;;;;;;29.50;29.50;;;;;12.55;64.49;100610.09;4956494;28;11083;-76
2021/04/20 01:18:16;;;;;;;;;32.00;32.00;;;;;12.50;65.33;100603.63;4955732;28;11153;-77
2021/04/20 01:21:14;;;;;;;;;33.50;32.50;;;;;12.54;64.99;100603.75;4955862;28;11128;-77
2021/04/20 01:24:10;;;;;;;;;29.00;29.00;;;;;12.59;64.78;100608.25;4966707;28;11012;-77
2021/04/20 01:27:06;;;;;;;;;32.00;31.75;;;;;12.75;64.35;100614.72;4967122;28;10934;-76
2021/04/20 01:30:05;;;;;;;;;30.00;30.00;;;;;12.78;64.05;100609.28;4959565;28;11099;-77
2021/04/20 01:33:09;;;;;;;;;32.50;32.25;;;;;12.77;63.57;100595.75;4966897;28;11076;-77
2021/04/20 01:36:05;;;;;;;;;25.25;21.25;;;;;12.79;63.62;100599.81;4957003;28;11085;-77
2021/04/20 01:39:01;;;;;;;;;32.00;31.25;;;;;12.62;64.15;100588.13;4955746;28;11026;-76
2021/04/20 01:41:57;;;;;;;;;35.75;34.00;;;;;12.76;64.13;100589.41;4956347;28;11304;-76
2021/04/20 01:44:53;;;;;;;;;30.25;30.25;;;;;12.79;64.06;100583.16;4956369;28;11107;-76
2021/04/20 01:47:49;;;;;;;;;31.25;29.75;;;;;12.82;63.22;100576.13;4965649;28;11027;-77
2021/04/20 01:50:16;;;;;;;;;30.75;30.25;;;;;12.86;64.02;100574.25;4970019;28;10965;-77
2021/04/20 01:53:12;;;;;;;;;27.50;27.50;;;;;12.74;63.74;100563.19;4973219;28;11006;-77
2021/04/20 01:56:10;;;;;;;;;30.75;30.75;;;;;12.77;63.40;100540.25;4986012;28;11037;-77
2021/04/20 01:59:06;;;;;;;;;32.25;31.25;;;;;12.45;63.75;100528.16;4985421;28;10860;-77
2021/04/20 02:02:03;;;;;;;;;28.25;27.75;;;;;12.49;64.16;100523.53;4975179;28;11049;-76
2021/04/20 02:04:59;;;;;;;;;37.25;34.00;;;;;12.44;64.05;100505.16;4972643;28;10926;-77
2021/04/20 02:07:55;;;;;;;;;31.25;31.25;;;;;12.32;64.12;100491.28;4974071;28;11293;-77
2021/04/20 02:10:52;;;;;;;;;34.75;33.50;;;;;12.72;64.33;100509.97;4985123;28;11010;-76
2021/04/20 02:13:49;;;;;;;;;33.50;33.50;;;;;12.61;64.08;100517.97;4974078;28;10930;-77
2021/04/20 02:16:45;;;;;;;;;38.00;36.25;;;;;12.47;64.43;100511.97;4974263;28;10933;-77
2021/04/20 02:19:42;;;;;;;;;39.25;36.25;;;;;12.61;64.10;100508.84;4973739;28;11105;-76
2021/04/20 02:22:11;;;;;;;;;36.00;34.25;;;;;12.73;63.91;100504.09;4974351;28;10976;-76
2021/04/20 02:25:08;;;;;;;;;35.25;34.25;;;;;12.79;63.89;100511.00;4972231;28;10914;-77
2021/04/20 02:28:04;;;;;;;;;37.50;36.00;;;;;12.81;64.16;100513.44;4974096;28;11243;-77
2021/04/20 02:31:03;;;;;;;;;40.25;37.50;;;;;12.97;63.44;100521.84;4974754;28;11395;-77
2021/04/20 02:33:59;;;;;;;;;36.00;34.75;;;;;12.82;63.57;100515.06;4984990;28;11259;-77
2021/04/20 02:36:42;;;;;;;;;37.75;36.50;;;;;12.90;63.92;100507.75;4986336;28;11090;-77
2021/04/20 02:39:38;;;;;;;;;36.50;35.00;;;;;12.95;63.75;100501.94;4985214;28;11252;-76
2021/04/20 02:42:36;;;;;;;;;32.75;32.25;;;;;12.94;63.85;100498.34;4974112;28;11169;-76
2021/04/20 02:45:06;;;;;;;;;40.50;38.00;;;;;12.76;63.33;100499.81;4988998;28;10997;-76
2021/04/20 02:48:04;;;;;;;;;36.00;34.00;;;;;12.87;63.29;100481.50;4973705;28;11191;-76
2021/04/20 02:51:01;;;;;;;;;41.75;37.75;;;;;13.09;62.79;100475.41;4953698;29;11209;-76
2021/04/20 02:53:57;;;;;;;;;41.25;38.00;;;;;13.08;62.42;100459.91;4967807;28;11568;-77
2021/04/20 02:56:54;;;;;;;;;37.25;34.50;;;;;12.92;63.79;100450.72;4973580;28;11311;-76
2021/04/20 02:59:50;;;;;;;;;34.25;34.00;;;;;12.93;64.19;100444.00;4973687;28;11169;-75
2021/04/20 03:02:48;;;;;;;;;38.75;35.25;;;;;12.62;64.02;100455.78;4973991;28;11010;-76
2021/04/20 03:05:44;;;;;;;;;39.25;36.50;;;;;12.53;64.87;100477.31;4973721;28;11267;-78
2021/04/20 03:08:42;;;;;;;;;41.00;38.25;;;;;12.70;64.36;100470.69;4974356;28;11447;-76
2021/04/20 03:11:49;;;;;;;;;39.25;37.25;;;;;12.62;64.80;100461.31;4971904;28;11364;-76
2021/04/20 03:14:44;;;;;;;;;37.25;35.00;;;;;12.62;64.85;100460.53;4974125;28;11545;-76
2021/04/20 03:17:41;;;;;;;;;32.00;31.25;;;;;12.74;64.81;100466.06;4974072;28;11188;-75
2021/04/20 03:20:37;;;;;;;;;42.00;38.25;;;;;12.62;64.70;100457.75;4972703;28;11166;-76
2021/04/20 03:23:34;;;;;;;;;39.75;37.00;;;;;12.56;64.76;100454.41;4973734;28;11355;-75
2021/04/20 03:26:38;;;;;;;;;36.50;34.25;;;;;12.60;64.51;100451.75;4972436;28;11174;-75
2021/04/20 03:29:34;;;;;;;;;42.00;38.25;;;;;12.62;64.76;100454.97;4972114;28;11327;-76
2021/04/20 03:32:15;;;;;;;;;38.25;36.75;;;;;12.79;63.97;100460.25;4973932;28;11564;-77
2021/04/20 03:35:33;;;;;;;;;35.00;34.25;;;;;12.70;64.42;100456.81;4958027;28;11346;-76
2021/04/20 03:38:13;;;;;;;;;41.50;38.25;;;;;12.78;64.83;100456.66;4978530;28;11247;-76
2021/04/20 03:41:15;;;;;;;;;48.50;41.00;;;;;12.86;64.06;100457.69;4976946;28;11223;-76
2021/04/20 03:44:16;;;;;;;;;70.75;58.25;;;;;12.91;63.59;100451.09;4988135;28;11632;-76
2021/04/20 03:47:28;;;;;;;;;76.00;59.50;;;;;12.85;64.53;100438.59;4976762;28;11700;-77
2021/04/20 03:50:29;;;;;;;;;63.75;51.75;;;;;12.79;65.03;100438.84;4988391;28;11739;-77
2021/04/20 03:53:26;;;;;;;;;72.00;55.25;;;;;12.87;65.12;100430.72;4976620;28;11651;-77
2021/04/20 03:56:28;;;;;;;;;75.25;60.00;;;;;12.64;66.04;100425.72;4976279;28;11647;-78
2021/04/20 03:59:26;;;;;;;;;81.25;63.50;;;;;12.56;67.31;100423.88;4976902;28;11642;-78
2021/04/20 04:02:23;;;;;;;;;92.50;78.50;;;;;12.65;68.03;100423.75;4965701;28;11628;-78
2021/04/20 04:05:29;;;;;;;;;82.00;64.25;;;;;12.71;67.82;100420.38;4957750;28;12418;-79
2021/04/20 04:08:27;;;;;;;;;68.25;57.00;;;;;12.51;68.67;100422.19;4957498;28;11077;-76
2021/04/20 04:11:24;;;;;;;;;68.00;51.50;;;;;12.58;69.50;100426.34;4961223;28;11681;-76
2021/04/20 04:14:23;;;;;;;;;67.25;53.00;;;;;12.13;70.98;100417.03;4974773;28;11743;-77
2021/04/20 04:17:07;;;;;;;;;73.75;57.50;;;;;12.07;71.70;100420.41;4976746;28;11627;-78
2021/04/20 04:19:53;;;;;;;;;64.00;52.00;;;;;12.03;71.98;100423.03;4989102;28;11776;-79
2021/04/20 04:22:56;;;;;;;;;72.25;56.75;;;;;11.82;72.24;100411.28;4976847;28;12420;-78
2021/04/20 04:26:08;;;;;;;;;86.25;73.25;;;;;11.67;72.90;100416.31;4975281;28;11618;-78
2021/04/20 04:29:10;;;;;;;;;122.33;100.33;;;;;11.62;73.45;100422.06;4974917;28;11657;-76
2021/04/20 04:32:08;;;;;;;;;113.67;100.33;;;;;11.73;73.57;100416.06;4956141;28;8857;-79
2021/04/20 04:35:05;;;;;;;;;130.33;109.67;;;;;11.69;73.89;100421.50;4973197;28;8870;-77
2021/04/20 04:38:02;;;;;;;;;127.67;101.00;;;;;11.84;73.31;100420.84;4975739;28;8834;-77
2021/04/20 04:40:44;;;;;;;;;113.67;95.33;;;;;11.86;73.35;100428.81;4976095;28;8882;-74
2021/04/20 04:43:42;;;;;;;;;109.33;94.67;;;;;11.85;73.82;100418.88;4975599;28;8878;-75
2021/04/20 04:46:09;;;;;;;;;113.67;93.67;;;;;11.78;74.04;100424.97;4975179;28;8855;-75
2021/04/20 04:49:07;;;;;;;;;105.25;84.25;;;;;11.74;74.34;100421.28;4975787;28;11679;-77
2021/04/20 04:51:37;;;;;;;;;118.67;89.33;;;;;11.75;74.16;100422.09;4975583;28;12423;-76
2021/04/20 04:54:33;;;;;;;;;126.33;103.00;;;;;11.85;75.11;100421.66;4975033;28;11672;-75
2021/04/20 04:57:16;;;;;;;;;103.67;85.00;;;;;11.75;75.31;100417.34;4981266;28;8860;-77
2021/04/20 05:00:12;;;;;;;;;93.00;85.50;;;;;11.60;75.77;100407.75;4967004;28;11671;-76
2021/04/20 05:03:08;;;;;;;;;100.25;86.25;;;;;11.68;75.46;100406.03;4956545;28;11628;-76
2021/04/20 05:06:29;;;;;;;;;110.33;93.67;;;;;11.70;76.00;100403.72;5039777;23;11770;-76
2021/04/20 05:08:57;;;;;;;;;96.50;82.25;;;;;11.72;76.33;100403.38;4972247;28;11695;-76
2021/04/20 05:11:44;;;;;;;;;105.00;90.75;;;;;11.87;76.15;100409.06;4987782;28;11700;-76
2021/04/20 05:14:17;;;;;;;;;90.00;77.75;;;;;11.95;76.75;100402.59;4973990;28;11729;-77
2021/04/20 05:17:13;;;;;;;;;85.75;72.75;;;;;11.85;76.79;100405.03;4976374;28;11699;-76
2021/04/20 05:20:16;;;;;;;;;95.67;87.00;;;;;11.80;77.53;100394.97;4973492;28;11770;-76
2021/04/20 05:23:16;;;;;;;;;85.50;70.75;;;;;11.96;76.82;100398.69;4973446;28;11699;-76
2021/04/20 05:25:44;;;;;;;;;67.75;56.50;;;;;11.78;77.69;100397.25;4986874;28;12974;-76
2021/04/20 05:28:40;;;;;;;;;68.25;56.25;;;;;11.93;77.03;100388.28;4972821;28;11681;-76
2021/04/20 05:31:08;;;;;;;;;67.75;56.00;;;;;11.96;77.42;100398.69;4974492;28;11634;-74
2021/04/20 05:34:05;;;;;;;;;71.75;57.75;;;;;12.01;77.69;100400.41;4973624;28;12569;-75
2021/04/20 05:37:02;;;;;;;;;72.00;55.50;;;;;12.04;77.46;100401.66;4969045;28;11627;-75
2021/04/20 05:40:11;;;;;;;;;73.25;59.25;;;;;11.92;78.16;100395.00;4970662;28;11827;-75
2021/04/20 05:43:07;;;;;;;;;73.00;58.00;;;;;11.97;78.16;100393.97;4972121;28;11745;-76
2021/04/20 05:45:37;;;;;;;;;78.00;61.50;;;;;11.96;78.19;100395.09;4973655;28;11667;-75
2021/04/20 05:48:09;;;;;;;;;78.50;61.00;;;;;12.00;77.71;100393.25;4974900;28;11706;-76
2021/04/20 05:51:05;;;;;;;;;68.00;54.75;;;;;12.01;77.70;100394.88;4981786;28;11659;-74
2021/04/20 05:54:01;;;;;;;;;63.75;53.25;;;;;11.98;77.37;100389.22;4970183;28;11636;-75
2021/04/20 05:56:59;;;;;;;;;91.50;78.50;;;;;12.17;77.16;100392.19;4974673;28;11654;-77
2021/04/20 05:59:36;;;;;;;;;73.75;58.50;;;;;12.17;77.51;100400.50;4969832;28;12452;-75
2021/04/20 06:02:04;;;;;;;;;73.75;59.00;;;;;12.30;77.78;100396.56;4974977;28;11752;-75
2021/04/20 06:05:04;;;;;;;;;82.50;64.75;;;;;12.24;77.17;100397.97;4975871;28;11664;-80
2021/04/20 06:08:04;;;;;;;;;78.00;64.75;;;;;12.25;77.64;100394.03;5003642;28;11682;-76
2021/04/20 06:11:02;;;;;;;;;75.00;60.00;;;;;12.32;78.21;100393.44;5008972;28;11620;-72
2021/04/20 06:13:46;;;;;;;;;77.25;63.25;;;;;12.52;78.29;100386.94;5012258;28;11575;-75
2021/04/20 06:16:14;;;;;;;;;66.50;53.50;;;;;12.37;78.16;100394.00;5013034;28;11618;-73
2021/04/20 06:18:42;;;;;;;;;72.00;59.00;;;;;12.11;78.24;100383.28;5013242;28;11646;-74
2021/04/20 06:21:11;;;;;;;;;74.00;58.25;;;;;12.23;77.83;100374.97;5011195;28;11590;-75
2021/04/20 06:23:38;;;;;;;;;71.25;58.00;;;;;12.32;78.06;100383.16;5013318;28;11628;-74
2021/04/20 06:26:06;;;;;;;;;84.75;72.50;;;;;12.31;78.95;100381.53;5011161;28;11627;-75
2021/04/20 06:28:48;;;;;;;;;76.50;61.50;;;;;12.43;78.64;100384.31;5011605;28;11603;-73
2021/04/20 06:31:17;;;;;;;;;77.25;61.50;;;;;12.47;78.00;100376.06;5011822;28;11632;-74
2021/04/20 06:34:00;;;;;;;;;81.25;65.75;;;;;12.40;78.99;100370.31;5010586;28;11619;-74
2021/04/20 06:36:53;;;;;;;;;84.00;71.25;;;;;12.50;79.43;100370.66;5009668;28;11688;-73
2021/04/20 06:39:21;;;;;;;;;85.50;74.00;;;;;12.52;79.52;100368.31;5013002;28;11590;-73
2021/04/20 06:41:59;;;;;;;;;80.50;67.50;;;;;12.48;79.70;100359.06;5010839;28;11623;-74
2021/04/20 06:44:50;;;;;;;;;84.75;71.75;;;;;12.56;80.13;100356.50;4992139;28;11672;-75
2021/04/20 06:47:38;;;;;;;;;75.25;60.75;;;;;12.41;80.04;100347.75;4992015;28;11611;-74
2021/04/20 06:50:37;;;;;;;;;83.50;67.25;;;;;12.44;81.01;100344.31;4991793;28;11714;-75
2021/04/20 06:53:38;;;;;;;;;74.50;61.00;;;;;12.40;80.63;100337.03;5001775;28;11568;-74
2021/04/20 06:56:40;;;;;;;;;81.25;66.50;;;;;12.47;80.87;100335.28;4992429;28;11613;-74
2021/04/20 06:59:29;;;;;;;;;73.75;60.00;;;;;12.33;81.58;100323.75;4993081;28;11602;-73
2021/04/20 07:02:12;;;;;;;;;83.75;70.00;;;;;12.48;81.70;100317.47;4976147;28;11586;-73
2021/04/20 07:04:47;;;;;;;;;71.75;59.50;;;;;12.49;81.84;100315.50;4977306;28;12567;-74
2021/04/20 07:07:32;;;;;;;;;71.00;57.25;;;;;12.57;82.00;100305.41;4992975;28;12330;-73
2021/04/20 07:10:19;;;;;;;;;67.75;55.00;;;;;12.45;81.76;100309.88;4995246;28;11677;-74
2021/04/20 07:12:52;;;;;;;;;69.25;56.75;;;;;12.30;82.84;100287.63;4995695;28;11607;-74
2021/04/20 07:15:25;;;;;;;;;71.25;56.50;;;;;12.40;82.63;100276.81;5018554;28;11588;-76
2021/04/20 07:18:27;;;;;;;;;73.00;58.25;;;;;12.59;82.58;100258.72;4999901;28;11580;-72
2021/04/20 07:21:13;;;;;;;;;74.00;60.50;;;;;12.67;82.40;100258.56;5011565;28;11586;-73
2021/04/20 07:24:21;;;;;;;;;35.00;32.50;;;;;12.61;83.36;100253.63;5002517;28;11520;-74
2021/04/20 07:27:48;;;;;;;;;64.50;53.00;;;;;12.48;83.68;100250.91;4984450;28;11580;-73
2021/04/20 07:30:35;;;;;;;;;66.75;53.75;;;;;12.68;83.06;100253.81;4985811;28;11640;-73
2021/04/20 07:33:52;;;;;;;;;62.75;52.00;;;;;12.65;83.08;100243.41;5016036;28;11567;-72
2021/04/20 07:36:23;;;;;;;;;61.00;51.75;;;;;12.56;83.56;100242.78;5015146;28;11586;-74
2021/04/20 07:39:22;;;;;;;;;63.25;53.00;;;;;12.56;83.59;100235.25;5015273;28;11498;-74
2021/04/20 07:42:36;;;;;;;;;64.00;53.50;;;;;12.64;83.55;100234.28;5015719;28;11578;-74
2021/04/20 07:45:33;;;;;;;;;52.00;44.75;;;;;12.50;84.12;100225.63;5003815;28;11557;-73
2021/04/20 07:48:44;;;;;;;;;63.00;53.00;;;;;12.42;84.73;100221.84;4993880;28;11511;-73
2021/04/20 07:52:04;;;;;;;;;60.50;51.00;;;;;12.57;84.41;100220.22;5008250;28;11684;-74
2021/04/20 07:55:23;;;;;;;;;62.50;52.00;;;;;12.69;83.67;100216.59;5014744;28;11607;-73
2021/04/20 07:58:22;;;;;;;;;60.00;50.75;;;;;12.68;84.08;100209.44;5005113;28;11535;-74
2021/04/20 08:01:27;;;;;;;;;61.00;51.00;;;;;12.77;84.06;100210.88;5002192;28;11508;-76
2021/04/20 08:04:45;;;;;;;;;60.25;50.50;;;;;12.66;84.29;100207.03;5014233;28;11631;-74
2021/04/20 08:07:50;;;;;;;;;58.75;48.75;;;;;12.51;84.93;100197.50;5010800;28;11588;-72
2021/04/20 08:10:38;;;;;;;;;60.75;51.50;;;;;12.61;84.69;100189.81;4970101;28;11691;-74
2021/04/20 08:13:59;;;;;;;;;63.25;51.75;;;;;12.37;85.34;100193.56;5008079;28;12293;-75
2021/04/20 08:17:13;;;;;;;;;54.25;46.25;;;;;12.61;85.24;100190.63;4997187;28;11630;-74
2021/04/20 08:20:02;;;;;;;;;59.00;49.50;;;;;12.61;85.16;100184.28;4997984;28;11601;-72
2021/04/20 08:22:34;;;;;;;;;61.75;52.00;;;;;12.34;86.05;100178.41;5015303;28;11595;-74
2021/04/20 08:25:48;;;;;;;;;60.75;49.50;;;;;12.45;86.42;100176.75;5001917;28;11634;-73
2021/04/20 08:28:21;;;;;;;;;60.75;51.00;;;;;12.60;85.99;100175.16;5015714;28;11561;-73
2021/04/20 08:31:13;;;;;;;;;64.50;52.75;;;;;12.70;85.65;100176.59;5001708;28;11579;-74
2021/04/20 08:34:20;;;;;;;;;65.50;53.25;;;;;12.55;86.10;100171.84;5007058;28;11602;-74
2021/04/20 08:37:41;;;;;;;;;61.00;51.25;;;;;12.44;87.04;100172.38;5014809;28;11663;-74
2021/04/20 08:40:12;;;;;;;;;63.00;53.00;;;;;12.39;87.36;100164.28;4978572;28;11766;-72
2021/04/20 08:43:51;;;;;;;;;66.50;55.75;;;;;12.49;86.97;100163.75;4995190;28;11749;-74
2021/04/20 08:46:54;;;;;;;;;64.25;53.50;;;;;12.37;87.72;100161.09;5000426;28;11586;-74
2021/04/20 08:49:56;;;;;;;;;63.75;52.25;;;;;12.50;87.14;100159.06;5014405;28;11608;-74
2021/04/20 08:53:01;;;;;;;;;70.75;56.25;;;;;12.44;87.83;100146.59;4999499;28;11586;-75
2021/04/20 08:56:37;;;;;;;;;76.25;61.75;;;;;12.44;88.07;100141.84;5012981;28;11568;-75
2021/04/20 08:59:16;;;;;;;;;75.00;59.00;;;;;12.45;88.66;100139.88;4985317;28;11568;-78
2021/04/20 09:02:18;;;;;;;;;71.25;57.50;;;;;12.60;88.51;100135.50;5015283;28;11591;-78
2021/04/20 09:05:41;;;;;;;;;68.25;55.25;;;;;12.67;87.83;100121.81;5014756;28;12471;-79
2021/04/20 09:08:43;;;;;;;;;64.50;52.25;;;;;12.39;89.02;100117.16;5015249;28;11693;-78
2021/04/20 09:11:29;;;;;;;;;66.25;53.50;;;;;12.46;88.75;100106.25;5015009;28;12548;-78
2021/04/20 09:14:37;;;;;;;;;65.25;53.75;;;;;12.63;88.17;100091.22;5014162;28;11676;-75
2021/04/20 09:17:30;;;;;;;;;69.25;54.75;;;;;12.69;87.88;100087.00;4995349;28;11607;-76
2021/04/20 09:20:17;;;;;;;;;68.50;54.75;;;;;12.65;88.61;100088.91;5014386;28;11630;-76
2021/04/20 09:23:15;;;;;;;;;66.50;53.75;;;;;12.70;88.38;100082.25;4998760;28;11639;-77
2021/04/20 09:26:28;;;;;;;;;65.25;54.00;;;;;12.79;88.37;100078.13;4988770;28;11754;-77
2021/04/20 09:29:20;;;;;;;;;65.75;52.50;;;;;12.78;88.11;100065.41;5013715;28;11578;-80
2021/04/20 09:32:02;;;;;;;;;67.50;54.00;;;;;12.94;87.27;100065.38;5014908;28;11558;-76
2021/04/20 09:35:00;;;;;;;;;62.00;52.50;;;;;12.72;87.91;100064.06;5013453;28;11676;-77
2021/04/20 09:37:58;;;;;;;;;63.25;52.00;;;;;12.91;88.09;100066.13;5013255;28;11572;-77
2021/04/20 09:40:56;;;;;;;;;63.00;52.25;;;;;12.53;88.73;100050.16;5013869;28;11559;-76
2021/04/20 09:44:06;;;;;;;;;66.50;53.00;;;;;12.61;88.30;100054.72;5014258;28;11638;-75
2021/04/20 09:46:47;;;;;;;;;65.50;53.00;;;;;12.68;88.68;100049.34;4993990;28;11577;-77
2021/04/20 09:49:37;;;;;;;;;63.00;52.25;;;;;12.62;88.71;100044.41;4995237;28;11606;-79
2021/04/20 09:52:14;;;;;;;;;68.50;56.00;;;;;12.64;88.93;100047.63;5003218;28;11576;-77
2021/04/20 09:54:55;;;;;;;;;68.00;55.75;;;;;12.83;88.23;100050.47;5014140;28;11606;-79
2021/04/20 09:57:31;;;;;;;;;75.50;59.25;;;;;12.53;88.17;100050.16;5014772;28;12294;-78
2021/04/20 10:00:08;;;;;;;;;77.25;63.75;;;;;12.77;88.95;100041.59;5014442;28;11736;-78
2021/04/20 10:03:35;;;;;;;;;78.00;62.25;;;;;12.83;87.38;100038.56;5013114;28;11061;-77
2021/04/20 10:06:25;;;;;;;;;59.50;46.75;;;;;12.69;88.14;100033.50;4997099;28;11566;-78
2021/04/20 10:10:14;;;;;;;;;72.00;58.00;;;;;12.75;88.06;100023.72;5014597;28;11660;-76
2021/04/20 10:13:17;;;;;;;;;75.00;59.00;;;;;12.54;88.85;100015.69;5007734;28;11619;-78
2021/04/20 10:16:23;;;;;;;;;71.25;58.25;;;;;12.78;88.27;100020.22;5005254;28;11593;-77
2021/04/20 10:19:39;;;;;;;;;73.50;57.75;;;;;12.69;88.49;100011.28;5019359;28;11661;-77
2021/04/20 10:22:29;;;;;;;;;72.50;59.50;;;;;12.93;88.11;100016.59;4994821;28;11595;-77
2021/04/20 10:25:33;;;;;;;;;68.50;55.50;;;;;12.72;88.49;100005.81;5013791;28;11638;-78
2021/04/20 10:28:24;;;;;;;;;67.75;55.50;;;;;12.64;88.16;100008.78;5015425;28;11579;-79
2021/04/20 10:30:55;;;;;;;;;65.00;52.25;;;;;12.72;88.15;100008.59;5014881;28;11598;-78
2021/04/20 10:33:53;;;;;;;;;66.25;54.00;;;;;12.67;88.17;100014.44;5001411;28;11602;-77
2021/04/20 10:36:51;;;;;;;;;58.75;50.00;;;;;12.86;88.04;100013.66;5012751;28;11657;-72
2021/04/20 10:39:50;;;;;;;;;56.25;47.00;;;;;12.75;88.33;100020.94;5010511;28;11588;-73
2021/04/20 10:42:48;;;;;;;;;56.00;47.50;;;;;12.80;88.14;100009.56;5012329;28;12208;-72
2021/04/20 10:45:44;;;;;;;;;58.25;49.00;;;;;12.73;88.02;100003.88;5014463;28;11519;-74
2021/04/20 10:48:27;;;;;;;;;56.25;48.00;;;;;12.89;87.97;100010.19;5017068;28;11498;-73
2021/04/20 10:50:55;;;;;;;;;53.00;45.25;;;;;12.87;88.09;99998.63;4998299;28;11521;-73
2021/04/20 10:53:54;;;;;;;;;51.50;43.00;;;;;13.14;87.47;99999.59;5016481;28;11626;-74
2021/04/20 10:56:56;;;;;;;;;51.75;43.00;;;;;13.25;87.06;100002.63;5000173;28;11501;-73
2021/04/20 10:59:28;;;;;;;;;33.00;33.00;;;;;13.01;87.29;100004.47;4967526;28;11530;-71
2021/04/20 11:02:32;;;;;;;;;52.75;45.75;;;;;13.20;86.68;100000.97;5015853;28;11496;-74
2021/04/20 11:05:31;;;;;;;;;45.75;40.00;;;;;13.12;86.76;99999.16;5014955;28;11509;-79
2021/04/20 11:07:59;;;;;;;;;49.75;42.75;;;;;13.21;86.29;100001.75;5014981;28;11448;-77
2021/04/20 11:10:55;;;;;;;;;51.00;42.50;;;;;13.27;85.81;99991.97;5014140;28;11537;-77
2021/04/20 11:13:52;;;;;;;;;52.25;45.25;;;;;13.38;85.83;99997.72;5015861;28;11489;-77
2021/04/20 11:16:47;;;;;;;;;56.75;46.75;;;;;13.05;86.59;99994.28;5016195;28;11512;-79
2021/04/20 11:19:21;;;;;;;;;48.25;42.50;;;;;12.99;86.51;99983.81;5017497;28;11513;-78
2021/04/20 11:21:49;;;;;;;;;55.25;47.50;;;;;13.22;86.35;99990.28;5014566;28;11499;-78
2021/04/20 11:24:25;;;;;;;;;50.25;43.75;;;;;13.12;86.84;99988.06;4988801;28;11498;-78
2021/04/20 11:27:10;;;;;;;;;52.00;44.25;;;;;13.00;87.13;99985.41;5013373;28;11488;-78
2021/04/20 11:30:13;;;;;;;;;61.50;50.50;;;;;12.97;87.59;99978.63;5013588;28;11510;-70
2021/04/20 11:33:19;;;;;;;;;54.50;46.75;;;;;12.92;87.56;99978.91;5014465;28;11491;-71
2021/04/20 11:36:22;;;;;;;;;63.00;52.50;;;;;12.99;87.60;99976.28;5015212;28;11664;-71
2021/04/20 11:38:53;;;;;;;;;61.50;51.25;;;;;13.19;87.20;99979.88;5015006;28;11525;-71
2021/04/20 11:41:58;;;;;;;;;68.50;53.50;;;;;13.16;87.28;99985.34;5016329;28;11531;-73
2021/04/20 11:44:59;;;;;;;;;68.75;56.25;;;;;13.09;87.50;99972.91;5015624;28;11583;-73
2021/04/20 11:47:36;;;;;;;;;71.00;57.25;;;;;13.05;87.42;99971.25;5015667;28;11583;-73
2021/04/20 11:50:34;;;;;;;;;60.75;51.25;;;;;12.90;87.76;99977.69;5014391;28;11623;-72
2021/04/20 11:53:05;;;;;;;;;61.75;51.25;;;;;12.95;87.77;99966.28;5015757;28;11522;-72
2021/04/20 11:55:36;;;;;;;;;63.50;53.25;;;;;13.03;87.46;99963.31;5013905;28;11502;-72
2021/04/20 11:58:11;;;;;;;;;58.25;49.25;;;;;12.99;87.64;99961.59;5014145;28;11550;-73
2021/04/20 12:00:42;;;;;;;;;63.00;52.50;;;;;12.94;87.78;99957.16;5016732;28;12349;-71
2021/04/20 12:03:54;;;;;;;;;64.00;53.25;;;;;12.96;88.04;99954.81;5009618;28;11510;-73
2021/04/20 12:06:36;;;;;;;;;61.50;50.50;;;;;13.02;87.67;99956.13;4996556;28;11616;-71
2021/04/20 12:09:38;;;;;;;;;63.50;53.25;;;;;13.13;87.36;99950.00;5010990;28;11519;-72
2021/04/20 12:12:08;;;;;;;;;56.75;48.25;;;;;13.12;86.98;99938.09;5008186;28;11609;-72
2021/04/20 12:15:09;;;;;;;;;65.25;53.00;;;;;13.08;87.39;99938.00;5014096;28;12310;-72
2021/04/20 12:18:07;;;;;;;;;56.50;46.75;;;;;12.99;87.02;99937.44;5013974;28;11577;-73
2021/04/20 12:21:08;;;;;;;;;61.50;51.00;;;;;12.96;87.44;99932.63;5001543;28;12300;-71
2021/04/20 12:24:07;;;;;;;;;62.50;51.75;;;;;13.04;87.41;99930.78;5003245;28;11491;-72
2021/04/20 12:26:53;;;;;;;;;65.00;53.00;;;;;13.20;86.69;99925.19;5010355;28;11518;-72
2021/04/20 12:29:52;;;;;;;;;65.75;54.75;;;;;13.42;86.06;99929.16;5015768;28;11616;-74
2021/04/20 12:32:48;;;;;;;;;67.50;55.50;;;;;13.41;85.25;99922.00;5013990;28;11651;-72
2021/04/20 12:35:45;;;;;;;;;64.00;53.00;;;;;13.20;85.97;99920.44;5013463;28;11613;-73
2021/04/20 12:38:17;;;;;;;;;66.25;52.00;;;;;13.19;86.52;99921.59;4997805;28;11527;-72
2021/04/20 12:41:13;;;;;;;;;66.00;51.75;;;;;13.08;86.70;99913.03;5013536;28;11603;-72
2021/04/20 12:43:48;;;;;;;;;67.75;56.75;;;;;13.19;86.70;99917.97;5014732;28;11516;-73
2021/04/20 12:46:24;;;;;;;;;69.25;53.75;;;;;12.93;87.14;99910.34;5014515;28;12320;-71
2021/04/20 12:48:56;;;;;;;;;66.75;55.00;;;;;12.85;88.17;99912.16;4997440;28;11611;-74
2021/04/20 12:51:26;;;;;;;;;65.25;54.50;;;;;12.85;88.20;99912.16;5014670;28;11577;-70
2021/04/20 12:53:57;;;;;;;;;70.75;56.00;;;;;13.07;87.57;99911.44;4997765;28;11597;-73
2021/04/20 12:56:38;;;;;;;;;60.75;51.00;;;;;13.03;87.69;99912.50;5014742;28;11572;-73
2021/04/20 12:59:16;;;;;;;;;63.50;52.75;;;;;12.93;87.52;99905.59;5013671;28;11596;-72
2021/04/20 13:01:52;;;;;;;;;56.25;47.50;;;;;12.88;87.11;99902.28;5014438;28;11592;-72
2021/04/20 13:04:32;;;;;;;;;58.50;49.50;;;;;12.93;87.41;99891.72;5014456;28;11553;-72
2021/04/20 13:07:03;;;;;;;;;51.25;45.00;;;;;13.15;86.25;99901.25;5014336;28;11546;-74